Milford, Nebraska
Current Conditions -  °F | °C
As of 3:54 PM on Thursday 23 Oct 2014 (Local Time) from KLNK Reporting Station
Clear Clear  
Wind Chill: 72°   Ceiling: Unl
Heat Index: 72°   Visibility: 10mi
Dew Point: 50°   Wind: 6mph
Humidity: 46%   Direction: 170°S
Pressure: 30.02"   Gusts: NA
Location:  40.77°N, 97.05°W
Report Text: KLNK 232054Z 17005KT 10SM CLR 22/10 A3002 RMK AO2 SLP160 T02220100 56021
Loading
Personal Weather Stations






























Interactive Weather Map
Tropical Storm Tracking
New forecast layout! Learn more

10-Day Weather Forecast

Advertisements
Track Severe Weather on mobile